sensor_id;sensor_type;location;lat;lon;timestamp;temperature;humidity
67817;DHT22;54614;47.576;7.524;2022-12-20T00:01:12;19.20;50.50
67817;DHT22;54614;47.576;7.524;2022-12-20T00:03:42;19.20;50.50
67817;DHT22;54614;47.576;7.524;2022-12-20T00:06:11;19.20;50.50
67817;DHT22;54614;47.576;7.524;2022-12-20T00:08:38;19.20;50.50
67817;DHT22;54614;47.576;7.524;2022-12-20T00:11:05;19.20;50.50
67817;DHT22;54614;47.576;7.524;2022-12-20T00:13:32;19.20;50.60
67817;DHT22;54614;47.576;7.524;2022-12-20T00:16:20;19.20;50.50
67817;DHT22;54614;47.576;7.524;2022-12-20T00:18:51;19.20;50.50
67817;DHT22;54614;47.576;7.524;2022-12-20T00:21:19;19.20;50.50
67817;DHT22;54614;47.576;7.524;2022-12-20T00:23:45;19.20;50.50
67817;DHT22;54614;47.576;7.524;2022-12-20T00:26:13;19.20;50.50
67817;DHT22;54614;47.576;7.524;2022-12-20T00:28:44;19.10;50.60
67817;DHT22;54614;47.576;7.524;2022-12-20T00:31:11;19.20;50.60
67817;DHT22;54614;47.576;7.524;2022-12-20T00:33:39;19.20;50.60
67817;DHT22;54614;47.576;7.524;2022-12-20T00:36:06;19.20;50.60
67817;DHT22;54614;47.576;7.524;2022-12-20T00:38:33;19.20;50.50
67817;DHT22;54614;47.576;7.524;2022-12-20T00:41:07;19.10;50.50
67817;DHT22;54614;47.576;7.524;2022-12-20T00:43:36;19.10;50.50
67817;DHT22;54614;47.576;7.524;2022-12-20T00:46:04;19.10;50.50
67817;DHT22;54614;47.576;7.524;2022-12-20T00:48:31;19.10;50.50
67817;DHT22;54614;47.576;7.524;2022-12-20T00:51:06;19.20;50.60
67817;DHT22;54614;47.576;7.524;2022-12-20T00:53:35;19.20;50.60
67817;DHT22;54614;47.576;7.524;2022-12-20T00:56:02;19.20;50.60
67817;DHT22;54614;47.576;7.524;2022-12-20T00:58:28;19.20;50.60
67817;DHT22;54614;47.576;7.524;2022-12-20T01:00:56;19.20;50.50
67817;DHT22;54614;47.576;7.524;2022-12-20T01:03:22;19.20;50.60
67817;DHT22;54614;47.576;7.524;2022-12-20T01:05:55;19.10;50.50
67817;DHT22;54614;47.576;7.524;2022-12-20T01:08:23;19.10;50.50
67817;DHT22;54614;47.576;7.524;2022-12-20T01:11:08;19.10;50.50
67817;DHT22;54614;47.576;7.524;2022-12-20T01:13:37;19.10;50.50
67817;DHT22;54614;47.576;7.524;2022-12-20T01:16:14;19.10;50.60
67817;DHT22;54614;47.576;7.524;2022-12-20T01:18:43;19.10;50.50
67817;DHT22;54614;47.576;7.524;2022-12-20T01:21:14;19.10;50.50
67817;DHT22;54614;47.576;7.524;2022-12-20T01:23:41;19.10;50.50
67817;DHT22;54614;47.576;7.524;2022-12-20T01:26:10;19.10;50.50
67817;DHT22;54614;47.576;7.524;2022-12-20T01:28:40;19.10;50.50
67817;DHT22;54614;47.576;7.524;2022-12-20T01:31:09;19.10;50.60
67817;DHT22;54614;47.576;7.524;2022-12-20T01:33:36;19.10;50.50
67817;DHT22;54614;47.576;7.524;2022-12-20T01:36:10;19.10;50.50
67817;DHT22;54614;47.576;7.524;2022-12-20T01:38:39;19.10;50.50
67817;DHT22;54614;47.576;7.524;2022-12-20T01:41:06;19.10;50.60
67817;DHT22;54614;47.576;7.524;2022-12-20T01:46:51;19.10;50.70
67817;DHT22;54614;47.576;7.524;2022-12-20T01:49:41;19.10;50.60
67817;DHT22;54614;47.576;7.524;2022-12-20T01:52:32;19.10;50.60
67817;DHT22;54614;47.576;7.524;2022-12-20T01:55:07;19.10;50.60
67817;DHT22;54614;47.576;7.524;2022-12-20T02:00:18;19.10;50.60
67817;DHT22;54614;47.576;7.524;2022-12-20T02:02:46;19.10;50.60
67817;DHT22;54614;47.576;7.524;2022-12-20T02:05:15;19.10;50.60
67817;DHT22;54614;47.576;7.524;2022-12-20T02:07:46;19.10;50.60
67817;DHT22;54614;47.576;7.524;2022-12-20T02:10:16;19.10;50.60
67817;DHT22;54614;47.576;7.524;2022-12-20T02:12:45;19.10;50.60
67817;DHT22;54614;47.576;7.524;2022-12-20T02:15:34;19.10;50.60
67817;DHT22;54614;47.576;7.524;2022-12-20T02:18:34;19.10;50.60
67817;DHT22;54614;47.576;7.524;2022-12-20T02:30:13;19.00;50.60
67817;DHT22;54614;47.576;7.524;2022-12-20T02:33:01;19.00;50.60
67817;DHT22;54614;47.576;7.524;2022-12-20T02:35:35;19.00;50.60
67817;DHT22;54614;47.576;7.524;2022-12-20T02:38:27;19.00;50.60
67817;DHT22;54614;47.576;7.524;2022-12-20T02:40:57;19.00;50.60
67817;DHT22;54614;47.576;7.524;2022-12-20T02:43:30;19.00;50.60
67817;DHT22;54614;47.576;7.524;2022-12-20T02:46:18;19.00;50.60
67817;DHT22;54614;47.576;7.524;2022-12-20T02:48:47;19.00;50.60
67817;DHT22;54614;47.576;7.524;2022-12-20T02:51:16;19.00;50.60
67817;DHT22;54614;47.576;7.524;2022-12-20T02:53:45;19.00;50.60
67817;DHT22;54614;47.576;7.524;2022-12-20T02:59:27;19.00;50.60
67817;DHT22;54614;47.576;7.524;2022-12-20T03:01:52;19.00;50.60
67817;DHT22;54614;47.576;7.524;2022-12-20T03:04:29;19.00;50.60
67817;DHT22;54614;47.576;7.524;2022-12-20T03:07:06;19.00;50.60
67817;DHT22;54614;47.576;7.524;2022-12-20T03:09:37;19.00;50.60
67817;DHT22;54614;47.576;7.524;2022-12-20T03:12:07;19.00;50.60
67817;DHT22;54614;47.576;7.524;2022-12-20T03:14:34;19.00;50.60
67817;DHT22;54614;47.576;7.524;2022-12-20T03:17:00;19.00;50.60
67817;DHT22;54614;47.576;7.524;2022-12-20T03:19:26;19.00;50.60
67817;DHT22;54614;47.576;7.524;2022-12-20T03:21:52;19.00;50.60
67817;DHT22;54614;47.576;7.524;2022-12-20T03:24:18;19.00;50.60
67817;DHT22;54614;47.576;7.524;2022-12-20T03:26:44;19.00;50.60
67817;DHT22;54614;47.576;7.524;2022-12-20T03:29:10;19.00;50.60
67817;DHT22;54614;47.576;7.524;2022-12-20T03:31:36;19.00;50.60
67817;DHT22;54614;47.576;7.524;2022-12-20T03:34:03;19.00;50.60
67817;DHT22;54614;47.576;7.524;2022-12-20T03:36:31;18.90;50.60
67817;DHT22;54614;47.576;7.524;2022-12-20T03:38:57;18.90;50.60
67817;DHT22;54614;47.576;7.524;2022-12-20T03:41:23;19.00;50.60
67817;DHT22;54614;47.576;7.524;2022-12-20T03:43:49;19.00;50.60
67817;DHT22;54614;47.576;7.524;2022-12-20T03:46:15;19.00;50.60
67817;DHT22;54614;47.576;7.524;2022-12-20T03:48:42;19.00;50.70
67817;DHT22;54614;47.576;7.524;2022-12-20T03:51:08;18.90;50.60
67817;DHT22;54614;47.576;7.524;2022-12-20T03:53:35;18.90;50.60
67817;DHT22;54614;47.576;7.524;2022-12-20T03:56:01;18.90;50.70
67817;DHT22;54614;47.576;7.524;2022-12-20T03:58:27;18.90;50.70
67817;DHT22;54614;47.576;7.524;2022-12-20T04:00:52;18.90;50.60
67817;DHT22;54614;47.576;7.524;2022-12-20T04:03:18;18.90;50.70
67817;DHT22;54614;47.576;7.524;2022-12-20T04:05:44;18.90;50.60
67817;DHT22;54614;47.576;7.524;2022-12-20T04:08:10;18.90;50.60
67817;DHT22;54614;47.576;7.524;2022-12-20T04:10:37;18.90;50.60
67817;DHT22;54614;47.576;7.524;2022-12-20T04:13:22;18.90;50.60
67817;DHT22;54614;47.576;7.524;2022-12-20T04:15:48;18.90;50.60
67817;DHT22;54614;47.576;7.524;2022-12-20T04:18:14;18.90;50.70
67817;DHT22;54614;47.576;7.524;2022-12-20T04:20:40;18.90;50.60
67817;DHT22;54614;47.576;7.524;2022-12-20T04:23:06;18.90;50.70
67817;DHT22;54614;47.576;7.524;2022-12-20T04:25:31;18.90;50.70
67817;DHT22;54614;47.576;7.524;2022-12-20T04:27:57;18.90;50.60
67817;DHT22;54614;47.576;7.524;2022-12-20T04:30:23;18.90;50.60
67817;DHT22;54614;47.576;7.524;2022-12-20T04:32:49;19.00;50.30
67817;DHT22;54614;47.576;7.524;2022-12-20T04:35:19;19.00;50.20
67817;DHT22;54614;47.576;7.524;2022-12-20T04:37:46;19.00;50.10
67817;DHT22;54614;47.576;7.524;2022-12-20T04:40:12;19.00;50.00
67817;DHT22;54614;47.576;7.524;2022-12-20T04:42:38;19.00;50.00
67817;DHT22;54614;47.576;7.524;2022-12-20T04:45:04;19.00;50.00
67817;DHT22;54614;47.576;7.524;2022-12-20T04:47:30;18.90;50.00
67817;DHT22;54614;47.576;7.524;2022-12-20T04:49:56;18.90;50.00
67817;DHT22;54614;47.576;7.524;2022-12-20T04:52:22;18.90;50.00
67817;DHT22;54614;47.576;7.524;2022-12-20T04:55:06;18.90;50.00
67817;DHT22;54614;47.576;7.524;2022-12-20T04:57:33;18.90;49.90
67817;DHT22;54614;47.576;7.524;2022-12-20T04:59:58;18.90;50.00
67817;DHT22;54614;47.576;7.524;2022-12-20T05:02:24;18.90;49.90
67817;DHT22;54614;47.576;7.524;2022-12-20T05:04:50;18.90;49.90
67817;DHT22;54614;47.576;7.524;2022-12-20T05:07:16;18.90;49.90
67817;DHT22;54614;47.576;7.524;2022-12-20T05:09:42;18.90;49.90
67817;DHT22;54614;47.576;7.524;2022-12-20T05:12:07;18.80;49.90
67817;DHT22;54614;47.576;7.524;2022-12-20T05:14:33;18.80;49.90
67817;DHT22;54614;47.576;7.524;2022-12-20T05:16:59;18.80;50.00
67817;DHT22;54614;47.576;7.524;2022-12-20T05:19:25;18.80;50.30
67817;DHT22;54614;47.576;7.524;2022-12-20T05:21:51;18.80;50.30
67817;DHT22;54614;47.576;7.524;2022-12-20T05:24:35;18.80;50.40
67817;DHT22;54614;47.576;7.524;2022-12-20T05:27:19;18.80;50.40
67817;DHT22;54614;47.576;7.524;2022-12-20T05:29:45;18.80;50.40
67817;DHT22;54614;47.576;7.524;2022-12-20T05:32:11;18.90;50.40
67817;DHT22;54614;47.576;7.524;2022-12-20T05:34:36;18.90;50.40
67817;DHT22;54614;47.576;7.524;2022-12-20T05:37:02;18.90;50.40
67817;DHT22;54614;47.576;7.524;2022-12-20T05:39:28;18.90;50.40
67817;DHT22;54614;47.576;7.524;2022-12-20T05:41:54;18.90;50.40
67817;DHT22;54614;47.576;7.524;2022-12-20T05:44:19;18.90;50.40
67817;DHT22;54614;47.576;7.524;2022-12-20T05:46:49;18.90;51.00
67817;DHT22;54614;47.576;7.524;2022-12-20T05:49:15;18.90;50.30
67817;DHT22;54614;47.576;7.524;2022-12-20T05:51:41;18.90;50.40
67817;DHT22;54614;47.576;7.524;2022-12-20T05:54:07;18.90;50.40
67817;DHT22;54614;47.576;7.524;2022-12-20T05:56:33;18.90;50.40
67817;DHT22;54614;47.576;7.524;2022-12-20T05:58:58;18.90;50.40
67817;DHT22;54614;47.576;7.524;2022-12-20T06:01:24;18.90;50.40
67817;DHT22;54614;47.576;7.524;2022-12-20T06:03:50;18.90;50.40
67817;DHT22;54614;47.576;7.524;2022-12-20T06:06:17;18.90;50.40
67817;DHT22;54614;47.576;7.524;2022-12-20T06:08:43;18.90;50.40
67817;DHT22;54614;47.576;7.524;2022-12-20T06:11:09;18.90;50.40
67817;DHT22;54614;47.576;7.524;2022-12-20T06:13:35;18.90;50.40
67817;DHT22;54614;47.576;7.524;2022-12-20T06:16:01;18.90;50.40
67817;DHT22;54614;47.576;7.524;2022-12-20T06:18:27;18.90;50.40
67817;DHT22;54614;47.576;7.524;2022-12-20T06:20:53;18.90;50.40
67817;DHT22;54614;47.576;7.524;2022-12-20T06:23:19;18.90;50.40
67817;DHT22;54614;47.576;7.524;2022-12-20T06:25:46;19.00;50.50
67817;DHT22;54614;47.576;7.524;2022-12-20T06:28:12;18.90;50.40
67817;DHT22;54614;47.576;7.524;2022-12-20T06:30:37;18.90;50.40
67817;DHT22;54614;47.576;7.524;2022-12-20T06:33:03;18.90;50.40
67817;DHT22;54614;47.576;7.524;2022-12-20T06:35:30;18.90;50.40
67817;DHT22;54614;47.576;7.524;2022-12-20T06:37:56;18.90;50.50
67817;DHT22;54614;47.576;7.524;2022-12-20T06:40:22;18.90;50.50
67817;DHT22;54614;47.576;7.524;2022-12-20T06:42:48;18.90;50.50
67817;DHT22;54614;47.576;7.524;2022-12-20T06:45:15;18.90;50.40
67817;DHT22;54614;47.576;7.524;2022-12-20T06:47:41;18.90;50.50
67817;DHT22;54614;47.576;7.524;2022-12-20T06:50:07;18.90;50.50
67817;DHT22;54614;47.576;7.524;2022-12-20T06:52:33;18.90;50.40
67817;DHT22;54614;47.576;7.524;2022-12-20T06:54:59;18.90;50.50
67817;DHT22;54614;47.576;7.524;2022-12-20T06:57:25;18.90;50.50
67817;DHT22;54614;47.576;7.524;2022-12-20T06:59:51;18.90;50.50
67817;DHT22;54614;47.576;7.524;2022-12-20T07:02:17;18.90;50.50
67817;DHT22;54614;47.576;7.524;2022-12-20T07:04:43;18.90;50.50
67817;DHT22;54614;47.576;7.524;2022-12-20T07:07:11;18.90;50.50
67817;DHT22;54614;47.576;7.524;2022-12-20T07:09:38;18.90;50.60
67817;DHT22;54614;47.576;7.524;2022-12-20T07:12:07;18.90;50.50
67817;DHT22;54614;47.576;7.524;2022-12-20T07:14:34;18.90;50.50
67817;DHT22;54614;47.576;7.524;2022-12-20T07:16:59;18.90;50.50
67817;DHT22;54614;47.576;7.524;2022-12-20T07:19:25;18.90;50.50
67817;DHT22;54614;47.576;7.524;2022-12-20T07:21:51;18.90;50.60
67817;DHT22;54614;47.576;7.524;2022-12-20T07:24:17;18.90;50.60
67817;DHT22;54614;47.576;7.524;2022-12-20T07:26:44;18.90;50.50
67817;DHT22;54614;47.576;7.524;2022-12-20T07:29:12;18.90;50.60
67817;DHT22;54614;47.576;7.524;2022-12-20T07:31:38;18.90;50.50
67817;DHT22;54614;47.576;7.524;2022-12-20T07:34:04;18.90;50.60
67817;DHT22;54614;47.576;7.524;2022-12-20T07:36:30;18.90;50.60
67817;DHT22;54614;47.576;7.524;2022-12-20T07:38:57;18.90;50.60
67817;DHT22;54614;47.576;7.524;2022-12-20T07:41:25;18.90;50.60
67817;DHT22;54614;47.576;7.524;2022-12-20T07:43:51;18.90;50.60
67817;DHT22;54614;47.576;7.524;2022-12-20T07:46:22;18.90;50.60
67817;DHT22;54614;47.576;7.524;2022-12-20T07:48:51;18.90;50.60
67817;DHT22;54614;47.576;7.524;2022-12-20T07:51:30;18.90;50.60
67817;DHT22;54614;47.576;7.524;2022-12-20T07:54:10;18.90;50.60
67817;DHT22;54614;47.576;7.524;2022-12-20T07:56:46;18.90;50.60
67817;DHT22;54614;47.576;7.524;2022-12-20T07:59:18;18.90;50.50
67817;DHT22;54614;47.576;7.524;2022-12-20T08:01:49;18.90;50.60
67817;DHT22;54614;47.576;7.524;2022-12-20T08:04:20;18.80;50.60
67817;DHT22;54614;47.576;7.524;2022-12-20T08:06:50;18.90;50.60
67817;DHT22;54614;47.576;7.524;2022-12-20T08:09:23;18.90;50.60
67817;DHT22;54614;47.576;7.524;2022-12-20T08:12:05;18.90;50.60
67817;DHT22;54614;47.576;7.524;2022-12-20T08:14:33;18.90;50.60
67817;DHT22;54614;47.576;7.524;2022-12-20T08:16:59;18.90;50.60
67817;DHT22;54614;47.576;7.524;2022-12-20T08:19:25;18.90;50.60
67817;DHT22;54614;47.576;7.524;2022-12-20T08:21:51;18.90;50.60
67817;DHT22;54614;47.576;7.524;2022-12-20T08:24:17;18.90;50.60
67817;DHT22;54614;47.576;7.524;2022-12-20T08:26:43;18.90;50.60
67817;DHT22;54614;47.576;7.524;2022-12-20T08:29:08;18.90;50.60
67817;DHT22;54614;47.576;7.524;2022-12-20T08:31:39;18.90;50.60
67817;DHT22;54614;47.576;7.524;2022-12-20T08:34:07;18.90;50.60
67817;DHT22;54614;47.576;7.524;2022-12-20T08:36:34;18.90;50.60
67817;DHT22;54614;47.576;7.524;2022-12-20T08:39:04;18.90;50.60
67817;DHT22;54614;47.576;7.524;2022-12-20T08:41:33;18.90;50.60
67817;DHT22;54614;47.576;7.524;2022-12-20T08:43:59;18.90;50.60
67817;DHT22;54614;47.576;7.524;2022-12-20T08:46:25;18.90;50.70
67817;DHT22;54614;47.576;7.524;2022-12-20T08:48:51;18.90;50.70
67817;DHT22;54614;47.576;7.524;2022-12-20T08:51:17;18.90;50.70
67817;DHT22;54614;47.576;7.524;2022-12-20T08:53:42;18.90;50.70
67817;DHT22;54614;47.576;7.524;2022-12-20T08:56:16;18.90;50.70
67817;DHT22;54614;47.576;7.524;2022-12-20T08:58:43;18.80;50.70
67817;DHT22;54614;47.576;7.524;2022-12-20T09:01:17;18.80;50.70
67817;DHT22;54614;47.576;7.524;2022-12-20T09:03:46;18.80;50.70
67817;DHT22;54614;47.576;7.524;2022-12-20T09:06:16;18.90;50.70
67817;DHT22;54614;47.576;7.524;2022-12-20T09:08:44;18.90;50.70
67817;DHT22;54614;47.576;7.524;2022-12-20T09:11:12;18.80;50.70
67817;DHT22;54614;47.576;7.524;2022-12-20T09:13:42;18.90;50.70
67817;DHT22;54614;47.576;7.524;2022-12-20T09:16:11;18.80;50.70
67817;DHT22;54614;47.576;7.524;2022-12-20T09:18:38;18.90;50.70
67817;DHT22;54614;47.576;7.524;2022-12-20T09:21:06;18.80;50.70
67817;DHT22;54614;47.576;7.524;2022-12-20T09:26:09;18.80;50.20
67817;DHT22;54614;47.576;7.524;2022-12-20T09:28:36;18.90;50.70
67817;DHT22;54614;47.576;7.524;2022-12-20T09:31:05;18.80;50.70
67817;DHT22;54614;47.576;7.524;2022-12-20T09:33:33;18.80;51.40
67817;DHT22;54614;47.576;7.524;2022-12-20T09:36:00;18.80;50.70
67817;DHT22;54614;47.576;7.524;2022-12-20T09:38:27;18.80;50.70
67817;DHT22;54614;47.576;7.524;2022-12-20T09:41:01;18.80;50.80
67817;DHT22;54614;47.576;7.524;2022-12-20T09:43:29;18.90;50.70
67817;DHT22;54614;47.576;7.524;2022-12-20T09:45:58;18.80;50.70
67817;DHT22;54614;47.576;7.524;2022-12-20T09:48:36;18.80;50.80
67817;DHT22;54614;47.576;7.524;2022-12-20T10:00:15;18.80;50.80
67817;DHT22;54614;47.576;7.524;2022-12-20T10:02:43;18.80;50.80
67817;DHT22;54614;47.576;7.524;2022-12-20T10:08:44;18.90;50.80
67817;DHT22;54614;47.576;7.524;2022-12-20T10:11:48;18.80;50.70
67817;DHT22;54614;47.576;7.524;2022-12-20T10:23:18;18.90;50.90
67817;DHT22;54614;47.576;7.524;2022-12-20T10:25:54;18.90;50.90
67817;DHT22;54614;47.576;7.524;2022-12-20T10:28:28;18.80;51.40
67817;DHT22;54614;47.576;7.524;2022-12-20T10:31:11;18.90;50.90
67817;DHT22;54614;47.576;7.524;2022-12-20T10:33:39;18.90;50.90
67817;DHT22;54614;47.576;7.524;2022-12-20T10:36:32;18.90;50.90
67817;DHT22;54614;47.576;7.524;2022-12-20T10:39:04;18.90;50.80
67817;DHT22;54614;47.576;7.524;2022-12-20T10:41:46;18.90;50.80
67817;DHT22;54614;47.576;7.524;2022-12-20T10:46:50;18.90;50.90
67817;DHT22;54614;47.576;7.524;2022-12-20T10:49:33;18.90;50.80
67817;DHT22;54614;47.576;7.524;2022-12-20T10:52:21;18.90;50.80
67817;DHT22;54614;47.576;7.524;2022-12-20T10:54:47;18.90;50.80
67817;DHT22;54614;47.576;7.524;2022-12-20T11:07:28;18.90;50.90
67817;DHT22;54614;47.576;7.524;2022-12-20T11:09:58;18.90;50.90
67817;DHT22;54614;47.576;7.524;2022-12-20T11:12:26;18.90;50.90
67817;DHT22;54614;47.576;7.524;2022-12-20T11:15:08;18.90;50.90
67817;DHT22;54614;47.576;7.524;2022-12-20T11:17:46;18.90;50.90
67817;DHT22;54614;47.576;7.524;2022-12-20T11:20:49;18.90;50.80
67817;DHT22;54614;47.576;7.524;2022-12-20T11:32:06;18.90;51.00
67817;DHT22;54614;47.576;7.524;2022-12-20T11:35:02;19.00;51.00
67817;DHT22;54614;47.576;7.524;2022-12-20T11:38:01;18.90;51.10
67817;DHT22;54614;47.576;7.524;2022-12-20T11:41:10;19.00;51.10
67817;DHT22;54614;47.576;7.524;2022-12-20T11:43:47;18.90;51.10
67817;DHT22;54614;47.576;7.524;2022-12-20T11:51:47;18.90;51.10
67817;DHT22;54614;47.576;7.524;2022-12-20T11:54:40;19.00;51.10
67817;DHT22;54614;47.576;7.524;2022-12-20T11:57:24;19.00;51.10
67817;DHT22;54614;47.576;7.524;2022-12-20T11:59:57;19.20;51.00
67817;DHT22;54614;47.576;7.524;2022-12-20T12:02:35;19.30;50.80
67817;DHT22;54614;47.576;7.524;2022-12-20T12:05:23;19.30;51.30
67817;DHT22;54614;47.576;7.524;2022-12-20T12:08:02;19.30;50.80
67817;DHT22;54614;47.576;7.524;2022-12-20T12:10:34;19.20;50.80
67817;DHT22;54614;47.576;7.524;2022-12-20T12:16:10;19.30;50.90
67817;DHT22;54614;47.576;7.524;2022-12-20T12:18:42;19.20;50.90
67817;DHT22;54614;47.576;7.524;2022-12-20T12:21:21;19.30;51.00
67817;DHT22;54614;47.576;7.524;2022-12-20T12:26:53;19.30;50.80
67817;DHT22;54614;47.576;7.524;2022-12-20T12:29:20;19.40;50.80
67817;DHT22;54614;47.576;7.524;2022-12-20T12:49:01;19.50;50.80
67817;DHT22;54614;47.576;7.524;2022-12-20T12:51:34;19.50;50.70
67817;DHT22;54614;47.576;7.524;2022-12-20T12:56:43;19.50;50.70
67817;DHT22;54614;47.576;7.524;2022-12-20T13:04:30;19.50;50.70
67817;DHT22;54614;47.576;7.524;2022-12-20T13:07:26;19.50;50.70
67817;DHT22;54614;47.576;7.524;2022-12-20T13:09:52;19.50;50.70
67817;DHT22;54614;47.576;7.524;2022-12-20T13:17:56;19.50;50.70
67817;DHT22;54614;47.576;7.524;2022-12-20T13:20:34;19.60;50.70
67817;DHT22;54614;47.576;7.524;2022-12-20T13:33:45;19.50;50.90
67817;DHT22;54614;47.576;7.524;2022-12-20T13:38:51;19.50;50.80
67817;DHT22;54614;47.576;7.524;2022-12-20T13:49:50;19.50;51.00
67817;DHT22;54614;47.576;7.524;2022-12-20T13:52:35;19.50;51.60
67817;DHT22;54614;47.576;7.524;2022-12-20T13:55:19;19.50;51.10
67817;DHT22;54614;47.576;7.524;2022-12-20T13:57:51;19.50;51.10
67817;DHT22;54614;47.576;7.524;2022-12-20T14:00:23;19.50;51.00
67817;DHT22;54614;47.576;7.524;2022-12-20T14:02:51;19.50;50.90
67817;DHT22;54614;47.576;7.524;2022-12-20T14:05:26;19.50;51.00
67817;DHT22;54614;47.576;7.524;2022-12-20T14:08:11;19.50;51.00
67817;DHT22;54614;47.576;7.524;2022-12-20T14:10:42;19.50;51.00
67817;DHT22;54614;47.576;7.524;2022-12-20T14:13:23;19.50;51.00
67817;DHT22;54614;47.576;7.524;2022-12-20T14:15:52;19.60;51.00
67817;DHT22;54614;47.576;7.524;2022-12-20T14:18:24;19.60;50.90
67817;DHT22;54614;47.576;7.524;2022-12-20T14:21:02;19.60;50.90
67817;DHT22;54614;47.576;7.524;2022-12-20T14:23:41;19.60;50.90
67817;DHT22;54614;47.576;7.524;2022-12-20T14:28:49;19.50;50.90
67817;DHT22;54614;47.576;7.524;2022-12-20T14:31:28;19.60;51.00
67817;DHT22;54614;47.576;7.524;2022-12-20T14:34:17;19.60;51.00
67817;DHT22;54614;47.576;7.524;2022-12-20T14:36:49;19.50;50.90
67817;DHT22;54614;47.576;7.524;2022-12-20T14:39:24;19.60;51.00
67817;DHT22;54614;47.576;7.524;2022-12-20T14:44:33;19.50;50.90
67817;DHT22;54614;47.576;7.524;2022-12-20T14:47:03;19.50;50.90
67817;DHT22;54614;47.576;7.524;2022-12-20T14:49:38;19.60;50.90
67817;DHT22;54614;47.576;7.524;2022-12-20T14:52:12;19.60;50.90
67817;DHT22;54614;47.576;7.524;2022-12-20T14:57:28;19.50;51.00
67817;DHT22;54614;47.576;7.524;2022-12-20T15:00:12;19.50;51.00
67817;DHT22;54614;47.576;7.524;2022-12-20T15:08:27;19.50;51.10
67817;DHT22;54614;47.576;7.524;2022-12-20T15:13:40;19.50;51.00
67817;DHT22;54614;47.576;7.524;2022-12-20T15:16:21;19.50;51.00
67817;DHT22;54614;47.576;7.524;2022-12-20T15:18:52;19.50;51.10
67817;DHT22;54614;47.576;7.524;2022-12-20T15:24:04;19.50;51.10
67817;DHT22;54614;47.576;7.524;2022-12-20T15:26:35;19.50;51.00
67817;DHT22;54614;47.576;7.524;2022-12-20T15:29:02;19.50;51.10
67817;DHT22;54614;47.576;7.524;2022-12-20T15:31:29;19.50;51.10
67817;DHT22;54614;47.576;7.524;2022-12-20T15:33:57;19.40;51.00
67817;DHT22;54614;47.576;7.524;2022-12-20T15:36:25;19.50;51.10
67817;DHT22;54614;47.576;7.524;2022-12-20T15:38:55;19.40;51.00
67817;DHT22;54614;47.576;7.524;2022-12-20T15:41:23;19.40;51.00
67817;DHT22;54614;47.576;7.524;2022-12-20T15:44:02;19.40;51.00
67817;DHT22;54614;47.576;7.524;2022-12-20T15:46:31;19.40;50.90
67817;DHT22;54614;47.576;7.524;2022-12-20T15:48:57;19.40;50.90
67817;DHT22;54614;47.576;7.524;2022-12-20T15:51:32;19.40;50.80
67817;DHT22;54614;47.576;7.524;2022-12-20T15:54:04;19.40;50.80
67817;DHT22;54614;47.576;7.524;2022-12-20T15:56:38;19.40;50.80
67817;DHT22;54614;47.576;7.524;2022-12-20T15:59:04;19.40;50.80
67817;DHT22;54614;47.576;7.524;2022-12-20T16:01:37;19.40;50.80
67817;DHT22;54614;47.576;7.524;2022-12-20T16:04:05;19.30;50.80
67817;DHT22;54614;47.576;7.524;2022-12-20T16:06:32;19.30;50.80
67817;DHT22;54614;47.576;7.524;2022-12-20T16:08:58;19.30;50.80
67817;DHT22;54614;47.576;7.524;2022-12-20T16:11:27;19.30;50.90
67817;DHT22;54614;47.576;7.524;2022-12-20T16:13:56;19.30;50.90
67817;DHT22;54614;47.576;7.524;2022-12-20T16:16:35;19.30;51.00
67817;DHT22;54614;47.576;7.524;2022-12-20T16:19:01;19.30;50.90
67817;DHT22;54614;47.576;7.524;2022-12-20T16:21:33;19.20;50.90
67817;DHT22;54614;47.576;7.524;2022-12-20T16:24:01;19.20;50.90
67817;DHT22;54614;47.576;7.524;2022-12-20T16:26:28;19.20;50.90
67817;DHT22;54614;47.576;7.524;2022-12-20T16:28:55;19.20;51.00
67817;DHT22;54614;47.576;7.524;2022-12-20T16:31:32;19.10;51.00
67817;DHT22;54614;47.576;7.524;2022-12-20T16:34:05;19.10;51.10
67817;DHT22;54614;47.576;7.524;2022-12-20T16:36:34;19.10;51.10
67817;DHT22;54614;47.576;7.524;2022-12-20T16:39:00;19.20;51.10
67817;DHT22;54614;47.576;7.524;2022-12-20T16:41:28;19.20;51.10
67817;DHT22;54614;47.576;7.524;2022-12-20T16:43:57;19.20;51.00
67817;DHT22;54614;47.576;7.524;2022-12-20T16:46:26;19.20;51.10
67817;DHT22;54614;47.576;7.524;2022-12-20T16:48:58;19.20;51.00
67817;DHT22;54614;47.576;7.524;2022-12-20T16:51:54;19.20;50.90
67817;DHT22;54614;47.576;7.524;2022-12-20T16:54:21;19.20;50.90
67817;DHT22;54614;47.576;7.524;2022-12-20T16:56:48;19.30;51.00
67817;DHT22;54614;47.576;7.524;2022-12-20T16:59:19;19.20;51.00
67817;DHT22;54614;47.576;7.524;2022-12-20T17:01:46;19.20;50.90
67817;DHT22;54614;47.576;7.524;2022-12-20T17:04:15;19.20;51.00
67817;DHT22;54614;47.576;7.524;2022-12-20T17:06:42;19.20;50.90
67817;DHT22;54614;47.576;7.524;2022-12-20T17:09:09;19.20;50.90
67817;DHT22;54614;47.576;7.524;2022-12-20T17:11:36;19.20;50.90
67817;DHT22;54614;47.576;7.524;2022-12-20T17:14:05;19.20;51.00
67817;DHT22;54614;47.576;7.524;2022-12-20T17:16:31;19.20;50.90
67817;DHT22;54614;47.576;7.524;2022-12-20T17:18:57;19.20;51.00
67817;DHT22;54614;47.576;7.524;2022-12-20T17:23:53;19.20;51.00
67817;DHT22;54614;47.576;7.524;2022-12-20T17:26:22;19.20;50.90
67817;DHT22;54614;47.576;7.524;2022-12-20T17:28:51;19.20;50.90
67817;DHT22;54614;47.576;7.524;2022-12-20T17:34:04;19.20;50.90
67817;DHT22;54614;47.576;7.524;2022-12-20T17:36:31;19.20;50.90
67817;DHT22;54614;47.576;7.524;2022-12-20T17:38:57;19.20;51.00
67817;DHT22;54614;47.576;7.524;2022-12-20T17:41:27;19.20;51.00
67817;DHT22;54614;47.576;7.524;2022-12-20T17:43:56;19.20;51.00
67817;DHT22;54614;47.576;7.524;2022-12-20T17:46:24;19.20;51.00
67817;DHT22;54614;47.576;7.524;2022-12-20T17:48:51;19.20;51.00
67817;DHT22;54614;47.576;7.524;2022-12-20T17:51:20;19.20;51.00
67817;DHT22;54614;47.576;7.524;2022-12-20T17:53:53;19.20;51.00
67817;DHT22;54614;47.576;7.524;2022-12-20T17:56:23;19.20;51.00
67817;DHT22;54614;47.576;7.524;2022-12-20T17:58:51;19.20;51.00
67817;DHT22;54614;47.576;7.524;2022-12-20T18:01:23;19.20;50.90
67817;DHT22;54614;47.576;7.524;2022-12-20T18:03:53;19.20;51.00
67817;DHT22;54614;47.576;7.524;2022-12-20T18:06:20;19.20;51.00
67817;DHT22;54614;47.576;7.524;2022-12-20T18:08:51;19.20;51.00
67817;DHT22;54614;47.576;7.524;2022-12-20T18:11:20;19.20;51.00
67817;DHT22;54614;47.576;7.524;2022-12-20T18:13:49;19.20;51.00
67817;DHT22;54614;47.576;7.524;2022-12-20T18:16:22;19.20;51.00
67817;DHT22;54614;47.576;7.524;2022-12-20T18:18:53;19.20;51.00
67817;DHT22;54614;47.576;7.524;2022-12-20T18:21:21;19.20;51.10
67817;DHT22;54614;47.576;7.524;2022-12-20T18:23:49;19.20;51.10